sensor_id;sensor_type;location;lat;lon;timestamp;temperature;humidity
15095;DHT22;7648;52.264;9.632;2024-01-30T00:03:04;6.20;99.90
15095;DHT22;7648;52.264;9.632;2024-01-30T00:07:06;6.20;99.90
15095;DHT22;7648;52.264;9.632;2024-01-30T00:11:08;6.10;99.90
15095;DHT22;7648;52.264;9.632;2024-01-30T00:15:12;6.10;99.90
15095;DHT22;7648;52.264;9.632;2024-01-30T00:19:14;6.10;99.90
15095;DHT22;7648;52.264;9.632;2024-01-30T00:23:16;6.20;99.90
15095;DHT22;7648;52.264;9.632;2024-01-30T00:27:18;6.20;99.90
15095;DHT22;7648;52.264;9.632;2024-01-30T00:31:21;6.30;99.90
15095;DHT22;7648;52.264;9.632;2024-01-30T00:35:23;6.30;99.90
15095;DHT22;7648;52.264;9.632;2024-01-30T00:39:25;6.20;99.90
15095;DHT22;7648;52.264;9.632;2024-01-30T00:43:27;6.20;99.90
15095;DHT22;7648;52.264;9.632;2024-01-30T00:47:30;6.10;99.90
15095;DHT22;7648;52.264;9.632;2024-01-30T00:51:33;6.10;99.90
15095;DHT22;7648;52.264;9.632;2024-01-30T00:55:35;6.10;99.90
15095;DHT22;7648;52.264;9.632;2024-01-30T00:59:37;6.00;99.90
15095;DHT22;7648;52.264;9.632;2024-01-30T01:03:40;6.00;99.90
15095;DHT22;7648;52.264;9.632;2024-01-30T01:07:44;6.00;99.90
15095;DHT22;7648;52.264;9.632;2024-01-30T01:11:48;6.00;99.90
15095;DHT22;7648;52.264;9.632;2024-01-30T01:15:50;5.90;99.90
15095;DHT22;7648;52.264;9.632;2024-01-30T01:19:53;5.90;99.90
15095;DHT22;7648;52.264;9.632;2024-01-30T01:23:55;5.80;99.90
15095;DHT22;7648;52.264;9.632;2024-01-30T01:27:57;5.80;99.90
15095;DHT22;7648;52.264;9.632;2024-01-30T01:32:01;5.80;99.90
15095;DHT22;7648;52.264;9.632;2024-01-30T01:36:05;5.70;99.90
15095;DHT22;7648;52.264;9.632;2024-01-30T01:40:08;5.70;99.90
15095;DHT22;7648;52.264;9.632;2024-01-30T01:44:10;5.80;99.90
15095;DHT22;7648;52.264;9.632;2024-01-30T01:48:12;5.80;99.90
15095;DHT22;7648;52.264;9.632;2024-01-30T01:52:17;5.70;99.90
15095;DHT22;7648;52.264;9.632;2024-01-30T01:56:19;5.70;99.90
15095;DHT22;7648;52.264;9.632;2024-01-30T02:00:21;5.50;99.90
15095;DHT22;7648;52.264;9.632;2024-01-30T02:04:23;5.40;99.90
15095;DHT22;7648;52.264;9.632;2024-01-30T02:08:27;5.30;99.90
15095;DHT22;7648;52.264;9.632;2024-01-30T02:12:29;5.30;99.90
15095;DHT22;7648;52.264;9.632;2024-01-30T02:16:31;5.40;99.90
15095;DHT22;7648;52.264;9.632;2024-01-30T02:20:35;5.50;99.90
15095;DHT22;7648;52.264;9.632;2024-01-30T02:24:40;5.70;99.90
15095;DHT22;7648;52.264;9.632;2024-01-30T02:28:42;5.80;99.90
15095;DHT22;7648;52.264;9.632;2024-01-30T02:32:44;5.90;99.90
15095;DHT22;7648;52.264;9.632;2024-01-30T02:36:46;6.00;99.90
15095;DHT22;7648;52.264;9.632;2024-01-30T02:40:50;6.00;99.90
15095;DHT22;7648;52.264;9.632;2024-01-30T02:44:52;6.10;99.90
15095;DHT22;7648;52.264;9.632;2024-01-30T02:48:54;6.20;99.90
15095;DHT22;7648;52.264;9.632;2024-01-30T02:52:55;6.20;99.90
15095;DHT22;7648;52.264;9.632;2024-01-30T02:56:59;6.20;99.90
15095;DHT22;7648;52.264;9.632;2024-01-30T03:01:01;6.00;99.90
15095;DHT22;7648;52.264;9.632;2024-01-30T03:05:04;5.90;99.90
15095;DHT22;7648;52.264;9.632;2024-01-30T03:09:06;5.80;99.90
15095;DHT22;7648;52.264;9.632;2024-01-30T03:13:11;5.70;99.90
15095;DHT22;7648;52.264;9.632;2024-01-30T03:17:13;5.60;99.90
15095;DHT22;7648;52.264;9.632;2024-01-30T03:21:15;5.50;99.90
15095;DHT22;7648;52.264;9.632;2024-01-30T03:25:17;5.50;99.90
15095;DHT22;7648;52.264;9.632;2024-01-30T03:29:20;5.40;99.90
15095;DHT22;7648;52.264;9.632;2024-01-30T03:33:22;5.30;99.90
15095;DHT22;7648;52.264;9.632;2024-01-30T03:37:24;5.30;99.90
15095;DHT22;7648;52.264;9.632;2024-01-30T03:41:26;5.20;99.90
15095;DHT22;7648;52.264;9.632;2024-01-30T03:45:30;5.20;99.90
15095;DHT22;7648;52.264;9.632;2024-01-30T03:49:31;5.10;99.90
15095;DHT22;7648;52.264;9.632;2024-01-30T03:53:33;5.00;99.90
15095;DHT22;7648;52.264;9.632;2024-01-30T03:57:36;5.00;99.90
15095;DHT22;7648;52.264;9.632;2024-01-30T04:01:39;4.90;99.90
15095;DHT22;7648;52.264;9.632;2024-01-30T04:05:41;4.90;99.90
15095;DHT22;7648;52.264;9.632;2024-01-30T04:09:43;4.90;99.90
15095;DHT22;7648;52.264;9.632;2024-01-30T04:13:45;5.00;99.90
15095;DHT22;7648;52.264;9.632;2024-01-30T04:17:50;5.00;99.90
15095;DHT22;7648;52.264;9.632;2024-01-30T04:21:52;5.20;99.90
15095;DHT22;7648;52.264;9.632;2024-01-30T04:25:54;5.30;99.90
15095;DHT22;7648;52.264;9.632;2024-01-30T04:29:55;5.30;99.90
15095;DHT22;7648;52.264;9.632;2024-01-30T04:33:59;5.40;99.90
15095;DHT22;7648;52.264;9.632;2024-01-30T04:38:01;5.40;99.90
15095;DHT22;7648;52.264;9.632;2024-01-30T04:42:03;5.40;99.90
15095;DHT22;7648;52.264;9.632;2024-01-30T04:46:05;5.40;99.90
15095;DHT22;7648;52.264;9.632;2024-01-30T04:50:09;5.30;99.90
15095;DHT22;7648;52.264;9.632;2024-01-30T04:54:11;5.20;99.90
15095;DHT22;7648;52.264;9.632;2024-01-30T04:58:13;5.10;99.90
15095;DHT22;7648;52.264;9.632;2024-01-30T05:02:15;5.00;99.90
15095;DHT22;7648;52.264;9.632;2024-01-30T05:06:25;4.90;99.90
15095;DHT22;7648;52.264;9.632;2024-01-30T05:10:27;4.90;99.90
15095;DHT22;7648;52.264;9.632;2024-01-30T05:14:30;4.80;99.90
15095;DHT22;7648;52.264;9.632;2024-01-30T05:18:32;4.80;99.90
15095;DHT22;7648;52.264;9.632;2024-01-30T05:22:35;4.70;99.90
15095;DHT22;7648;52.264;9.632;2024-01-30T05:26:37;4.60;99.90
15095;DHT22;7648;52.264;9.632;2024-01-30T05:30:39;4.60;99.90
15095;DHT22;7648;52.264;9.632;2024-01-30T05:34:41;4.70;99.90
15095;DHT22;7648;52.264;9.632;2024-01-30T05:38:44;4.80;99.90
15095;DHT22;7648;52.264;9.632;2024-01-30T05:42:47;4.90;99.90
15095;DHT22;7648;52.264;9.632;2024-01-30T05:46:49;4.80;99.90
15095;DHT22;7648;52.264;9.632;2024-01-30T05:50:51;4.70;99.90
15095;DHT22;7648;52.264;9.632;2024-01-30T05:54:55;4.70;99.90
15095;DHT22;7648;52.264;9.632;2024-01-30T05:58:57;4.70;99.90
15095;DHT22;7648;52.264;9.632;2024-01-30T06:02:58;4.80;99.90
15095;DHT22;7648;52.264;9.632;2024-01-30T06:07:00;4.80;99.90
15095;DHT22;7648;52.264;9.632;2024-01-30T06:11:04;4.80;99.90
15095;DHT22;7648;52.264;9.632;2024-01-30T06:15:07;4.80;99.90
15095;DHT22;7648;52.264;9.632;2024-01-30T06:19:09;4.80;99.90
15095;DHT22;7648;52.264;9.632;2024-01-30T06:23:11;4.80;99.90
15095;DHT22;7648;52.264;9.632;2024-01-30T06:27:16;4.80;99.90
15095;DHT22;7648;52.264;9.632;2024-01-30T06:31:18;4.70;99.90
15095;DHT22;7648;52.264;9.632;2024-01-30T06:35:20;4.70;99.90
15095;DHT22;7648;52.264;9.632;2024-01-30T06:39:22;4.70;99.90
15095;DHT22;7648;52.264;9.632;2024-01-30T06:43:25;4.70;99.90
15095;DHT22;7648;52.264;9.632;2024-01-30T06:47:27;4.80;99.90
15095;DHT22;7648;52.264;9.632;2024-01-30T06:51:31;4.80;99.90
15095;DHT22;7648;52.264;9.632;2024-01-30T06:55:33;4.80;99.90
15095;DHT22;7648;52.264;9.632;2024-01-30T06:59:36;4.70;99.90
15095;DHT22;7648;52.264;9.632;2024-01-30T07:03:42;4.80;99.90
15095;DHT22;7648;52.264;9.632;2024-01-30T07:07:44;4.70;99.90
15095;DHT22;7648;52.264;9.632;2024-01-30T07:11:46;4.70;99.90
15095;DHT22;7648;52.264;9.632;2024-01-30T07:15:49;4.60;99.90
15095;DHT22;7648;52.264;9.632;2024-01-30T07:19:51;4.60;99.90
15095;DHT22;7648;52.264;9.632;2024-01-30T07:23:53;4.60;99.90
15095;DHT22;7648;52.264;9.632;2024-01-30T07:27:55;4.60;99.90
15095;DHT22;7648;52.264;9.632;2024-01-30T07:31:59;4.60;99.90
15095;DHT22;7648;52.264;9.632;2024-01-30T07:36:01;4.70;99.90
15095;DHT22;7648;52.264;9.632;2024-01-30T07:40:04;4.70;99.90
15095;DHT22;7648;52.264;9.632;2024-01-30T07:44:07;4.70;99.90
15095;DHT22;7648;52.264;9.632;2024-01-30T07:48:10;4.70;99.90
15095;DHT22;7648;52.264;9.632;2024-01-30T07:52:12;4.80;99.90
15095;DHT22;7648;52.264;9.632;2024-01-30T08:01:30;4.90;99.90
15095;DHT22;7648;52.264;9.632;2024-01-30T08:05:33;5.00;99.90
15095;DHT22;7648;52.264;9.632;2024-01-30T08:09:35;5.10;99.90
15095;DHT22;7648;52.264;9.632;2024-01-30T08:13:37;5.20;99.90
15095;DHT22;7648;52.264;9.632;2024-01-30T08:17:40;5.30;99.90
15095;DHT22;7648;52.264;9.632;2024-01-30T08:21:43;5.30;99.90
15095;DHT22;7648;52.264;9.632;2024-01-30T08:25:45;5.40;99.90
15095;DHT22;7648;52.264;9.632;2024-01-30T08:29:47;5.40;99.90
15095;DHT22;7648;52.264;9.632;2024-01-30T08:33:50;5.50;99.90
15095;DHT22;7648;52.264;9.632;2024-01-30T08:37:54;5.70;99.90
15095;DHT22;7648;52.264;9.632;2024-01-30T08:41:55;5.80;99.90
15095;DHT22;7648;52.264;9.632;2024-01-30T08:45:59;6.00;99.90
15095;DHT22;7648;52.264;9.632;2024-01-30T08:50:01;6.20;99.90
15095;DHT22;7648;52.264;9.632;2024-01-30T08:54:04;6.40;99.90
15095;DHT22;7648;52.264;9.632;2024-01-30T08:58:06;6.50;99.90
15095;DHT22;7648;52.264;9.632;2024-01-30T09:02:08;6.60;99.90
15095;DHT22;7648;52.264;9.632;2024-01-30T09:06:10;6.80;99.90
15095;DHT22;7648;52.264;9.632;2024-01-30T09:10:15;6.90;99.90
15095;DHT22;7648;52.264;9.632;2024-01-30T09:14:17;7.00;99.90
15095;DHT22;7648;52.264;9.632;2024-01-30T09:18:19;7.00;99.90
15095;DHT22;7648;52.264;9.632;2024-01-30T09:22:20;7.20;99.90
15095;DHT22;7648;52.264;9.632;2024-01-30T09:26:24;7.30;99.90
15095;DHT22;7648;52.264;9.632;2024-01-30T09:30:26;7.30;99.90
15095;DHT22;7648;52.264;9.632;2024-01-30T09:34:28;7.30;99.90
15095;DHT22;7648;52.264;9.632;2024-01-30T09:38:29;7.30;99.90
15095;DHT22;7648;52.264;9.632;2024-01-30T09:42:35;7.30;99.90
15095;DHT22;7648;52.264;9.632;2024-01-30T09:46:38;7.40;99.90
15095;DHT22;7648;52.264;9.632;2024-01-30T09:50:40;7.50;99.90
15095;DHT22;7648;52.264;9.632;2024-01-30T09:54:42;7.60;99.90
15095;DHT22;7648;52.264;9.632;2024-01-30T09:58:46;7.80;99.90
15095;DHT22;7648;52.264;9.632;2024-01-30T10:02:49;8.10;99.90
15095;DHT22;7648;52.264;9.632;2024-01-30T10:06:51;8.50;99.90
15095;DHT22;7648;52.264;9.632;2024-01-30T10:10:53;8.70;99.90
15095;DHT22;7648;52.264;9.632;2024-01-30T10:14:58;9.00;99.90
15095;DHT22;7648;52.264;9.632;2024-01-30T10:19:01;9.10;99.90
15095;DHT22;7648;52.264;9.632;2024-01-30T10:23:03;9.20;99.90
15095;DHT22;7648;52.264;9.632;2024-01-30T10:27:06;9.30;99.90
15095;DHT22;7648;52.264;9.632;2024-01-30T10:31:09;9.40;99.90
15095;DHT22;7648;52.264;9.632;2024-01-30T10:35:11;9.40;99.90
15095;DHT22;7648;52.264;9.632;2024-01-30T10:39:15;9.50;99.90
15095;DHT22;7648;52.264;9.632;2024-01-30T10:43:22;9.60;99.90
15095;DHT22;7648;52.264;9.632;2024-01-30T10:47:28;9.60;99.90
15095;DHT22;7648;52.264;9.632;2024-01-30T10:51:31;9.60;99.90
15095;DHT22;7648;52.264;9.632;2024-01-30T10:55:34;9.70;99.90
15095;DHT22;7648;52.264;9.632;2024-01-30T10:59:38;9.70;99.90
15095;DHT22;7648;52.264;9.632;2024-01-30T11:03:42;9.70;99.90
15095;DHT22;7648;52.264;9.632;2024-01-30T11:07:44;9.70;99.90
15095;DHT22;7648;52.264;9.632;2024-01-30T11:11:50;9.90;99.90
15095;DHT22;7648;52.264;9.632;2024-01-30T11:15:52;10.00;99.90
15095;DHT22;7648;52.264;9.632;2024-01-30T11:19:59;10.10;99.90
15095;DHT22;7648;52.264;9.632;2024-01-30T11:24:03;10.20;99.90
15095;DHT22;7648;52.264;9.632;2024-01-30T11:28:05;10.20;99.90
15095;DHT22;7648;52.264;9.632;2024-01-30T11:32:07;10.30;99.90
15095;DHT22;7648;52.264;9.632;2024-01-30T11:36:12;10.30;99.90
15095;DHT22;7648;52.264;9.632;2024-01-30T11:40:15;10.30;99.90
15095;DHT22;7648;52.264;9.632;2024-01-30T11:44:18;10.30;99.90
15095;DHT22;7648;52.264;9.632;2024-01-30T11:48:21;10.30;99.90
15095;DHT22;7648;52.264;9.632;2024-01-30T11:52:24;10.40;99.90
15095;DHT22;7648;52.264;9.632;2024-01-30T11:56:26;10.50;99.90
15095;DHT22;7648;52.264;9.632;2024-01-30T12:00:28;10.60;99.90
15095;DHT22;7648;52.264;9.632;2024-01-30T12:04:31;10.60;99.90
15095;DHT22;7648;52.264;9.632;2024-01-30T12:08:34;10.50;99.90
15095;DHT22;7648;52.264;9.632;2024-01-30T12:12:36;10.50;99.90
15095;DHT22;7648;52.264;9.632;2024-01-30T12:16:38;10.50;99.90
15095;DHT22;7648;52.264;9.632;2024-01-30T12:20:42;10.50;99.90
15095;DHT22;7648;52.264;9.632;2024-01-30T12:24:45;10.60;99.90
15095;DHT22;7648;52.264;9.632;2024-01-30T12:28:50;10.60;99.90
15095;DHT22;7648;52.264;9.632;2024-01-30T12:32:52;10.50;99.90
15095;DHT22;7648;52.264;9.632;2024-01-30T12:36:54;10.50;99.90
15095;DHT22;7648;52.264;9.632;2024-01-30T12:40:57;10.50;99.90
15095;DHT22;7648;52.264;9.632;2024-01-30T12:44:59;10.50;99.90
15095;DHT22;7648;52.264;9.632;2024-01-30T12:49:01;10.40;99.90
15095;DHT22;7648;52.264;9.632;2024-01-30T12:53:04;10.50;99.90
15095;DHT22;7648;52.264;9.632;2024-01-30T12:57:08;10.40;99.90
15095;DHT22;7648;52.264;9.632;2024-01-30T13:01:10;10.40;99.90
15095;DHT22;7648;52.264;9.632;2024-01-30T13:05:12;10.40;99.90
15095;DHT22;7648;52.264;9.632;2024-01-30T13:09:14;10.50;99.90
15095;DHT22;7648;52.264;9.632;2024-01-30T13:13:17;10.50;99.90
15095;DHT22;7648;52.264;9.632;2024-01-30T13:17:19;10.50;99.90
15095;DHT22;7648;52.264;9.632;2024-01-30T13:21:21;10.50;99.90
15095;DHT22;7648;52.264;9.632;2024-01-30T13:25:23;10.40;99.90
15095;DHT22;7648;52.264;9.632;2024-01-30T13:29:27;10.40;99.90
15095;DHT22;7648;52.264;9.632;2024-01-30T13:33:29;10.50;99.90
15095;DHT22;7648;52.264;9.632;2024-01-30T13:37:30;10.40;99.90
15095;DHT22;7648;52.264;9.632;2024-01-30T13:41:32;10.40;99.90
15095;DHT22;7648;52.264;9.632;2024-01-30T13:45:36;10.30;99.90
15095;DHT22;7648;52.264;9.632;2024-01-30T13:49:38;10.30;99.90
15095;DHT22;7648;52.264;9.632;2024-01-30T13:53:39;10.30;99.90
15095;DHT22;7648;52.264;9.632;2024-01-30T13:57:42;10.30;99.90
15095;DHT22;7648;52.264;9.632;2024-01-30T14:01:46;10.40;99.90
15095;DHT22;7648;52.264;9.632;2024-01-30T14:05:48;10.40;99.90
15095;DHT22;7648;52.264;9.632;2024-01-30T14:09:51;10.40;99.90
15095;DHT22;7648;52.264;9.632;2024-01-30T14:13:53;10.30;99.90
15095;DHT22;7648;52.264;9.632;2024-01-30T14:17:56;10.30;99.90
15095;DHT22;7648;52.264;9.632;2024-01-30T14:21:58;10.20;99.90
15095;DHT22;7648;52.264;9.632;2024-01-30T14:26:00;10.20;99.90
15095;DHT22;7648;52.264;9.632;2024-01-30T14:30:03;10.20;99.90
15095;DHT22;7648;52.264;9.632;2024-01-30T14:34:06;10.20;99.90
15095;DHT22;7648;52.264;9.632;2024-01-30T14:38:09;10.20;99.90
15095;DHT22;7648;52.264;9.632;2024-01-30T14:42:11;10.20;99.90
15095;DHT22;7648;52.264;9.632;2024-01-30T14:46:13;10.10;99.90
15095;DHT22;7648;52.264;9.632;2024-01-30T14:50:16;10.20;99.90
15095;DHT22;7648;52.264;9.632;2024-01-30T14:54:18;10.20;99.90
15095;DHT22;7648;52.264;9.632;2024-01-30T14:58:20;10.20;99.90
15095;DHT22;7648;52.264;9.632;2024-01-30T15:02:23;10.20;99.90
15095;DHT22;7648;52.264;9.632;2024-01-30T15:06:26;10.20;99.90
15095;DHT22;7648;52.264;9.632;2024-01-30T15:10:28;10.20;99.90
15095;DHT22;7648;52.264;9.632;2024-01-30T15:14:30;10.20;99.90
15095;DHT22;7648;52.264;9.632;2024-01-30T15:18:32;10.10;99.90
15095;DHT22;7648;52.264;9.632;2024-01-30T15:22:35;10.10;99.90
15095;DHT22;7648;52.264;9.632;2024-01-30T15:26:38;10.00;99.90
15095;DHT22;7648;52.264;9.632;2024-01-30T15:30:39;10.00;99.90
15095;DHT22;7648;52.264;9.632;2024-01-30T15:34:42;10.00;99.90
15095;DHT22;7648;52.264;9.632;2024-01-30T15:38:46;9.90;99.90
15095;DHT22;7648;52.264;9.632;2024-01-30T15:42:48;9.90;99.90
15095;DHT22;7648;52.264;9.632;2024-01-30T15:46:50;9.80;99.90
15095;DHT22;7648;52.264;9.632;2024-01-30T15:50:52;9.80;99.90
15095;DHT22;7648;52.264;9.632;2024-01-30T15:54:55;9.80;99.90
15095;DHT22;7648;52.264;9.632;2024-01-30T15:58:57;9.80;99.90
15095;DHT22;7648;52.264;9.632;2024-01-30T16:03:00;9.80;99.90
15095;DHT22;7648;52.264;9.632;2024-01-30T16:07:02;9.80;99.90
15095;DHT22;7648;52.264;9.632;2024-01-30T16:11:05;9.80;99.90
15095;DHT22;7648;52.264;9.632;2024-01-30T16:15:08;9.80;99.90
15095;DHT22;7648;52.264;9.632;2024-01-30T16:19:10;9.80;99.90
15095;DHT22;7648;52.264;9.632;2024-01-30T16:23:12;9.70;99.90
15095;DHT22;7648;52.264;9.632;2024-01-30T16:27:15;9.70;99.90
15095;DHT22;7648;52.264;9.632;2024-01-30T16:31:17;9.60;99.90
15095;DHT22;7648;52.264;9.632;2024-01-30T16:35:20;9.60;99.90
15095;DHT22;7648;52.264;9.632;2024-01-30T16:39:22;9.60;99.90
15095;DHT22;7648;52.264;9.632;2024-01-30T16:43:26;9.60;99.90
15095;DHT22;7648;52.264;9.632;2024-01-30T16:47:28;9.60;99.90
15095;DHT22;7648;52.264;9.632;2024-01-30T16:51:30;9.60;99.90
15095;DHT22;7648;52.264;9.632;2024-01-30T16:55:32;9.60;99.90
15095;DHT22;7648;52.264;9.632;2024-01-30T16:59:35;9.60;99.90
15095;DHT22;7648;52.264;9.632;2024-01-30T17:03:40;9.70;99.90
15095;DHT22;7648;52.264;9.632;2024-01-30T17:07:44;9.60;99.90
15095;DHT22;7648;52.264;9.632;2024-01-30T17:11:46;9.60;99.90
15095;DHT22;7648;52.264;9.632;2024-01-30T17:15:50;9.50;99.90
15095;DHT22;7648;52.264;9.632;2024-01-30T17:19:52;9.50;99.90
15095;DHT22;7648;52.264;9.632;2024-01-30T17:23:54;9.60;99.90
15095;DHT22;7648;52.264;9.632;2024-01-30T17:27:55;9.60;99.90
15095;DHT22;7648;52.264;9.632;2024-01-30T17:31:59;9.60;99.90
15095;DHT22;7648;52.264;9.632;2024-01-30T17:36:03;9.70;99.90
15095;DHT22;7648;52.264;9.632;2024-01-30T17:40:06;9.70;99.90
15095;DHT22;7648;52.264;9.632;2024-01-30T17:44:08;9.60;99.90
15095;DHT22;7648;52.264;9.632;2024-01-30T17:48:13;9.60;99.90
15095;DHT22;7648;52.264;9.632;2024-01-30T17:52:15;9.50;99.90
15095;DHT22;7648;52.264;9.632;2024-01-30T17:56:18;9.50;99.90
15095;DHT22;7648;52.264;9.632;2024-01-30T18:00:21;9.40;99.90
15095;DHT22;7648;52.264;9.632;2024-01-30T18:04:24;9.50;99.90
15095;DHT22;7648;52.264;9.632;2024-01-30T18:08:26;9.60;99.90
15095;DHT22;7648;52.264;9.632;2024-01-30T18:12:28;9.80;99.90
15095;DHT22;7648;52.264;9.632;2024-01-30T18:16:30;9.80;99.90
15095;DHT22;7648;52.264;9.632;2024-01-30T18:20:34;10.00;99.90
15095;DHT22;7648;52.264;9.632;2024-01-30T18:24:36;10.10;99.90
15095;DHT22;7648;52.264;9.632;2024-01-30T18:28:38;10.10;99.90
15095;DHT22;7648;52.264;9.632;2024-01-30T18:32:40;10.30;99.90
15095;DHT22;7648;52.264;9.632;2024-01-30T18:36:43;10.30;99.90
15095;DHT22;7648;52.264;9.632;2024-01-30T18:40:45;10.30;99.90
15095;DHT22;7648;52.264;9.632;2024-01-30T18:44:47;10.30;99.90
15095;DHT22;7648;52.264;9.632;2024-01-30T18:48:49;10.30;99.90
15095;DHT22;7648;52.264;9.632;2024-01-30T18:52:53;10.10;99.90
15095;DHT22;7648;52.264;9.632;2024-01-30T18:56:55;10.00;99.90
15095;DHT22;7648;52.264;9.632;2024-01-30T19:00:56;9.90;99.90
15095;DHT22;7648;52.264;9.632;2024-01-30T19:04:58;9.70;99.90
15095;DHT22;7648;52.264;9.632;2024-01-30T19:09:02;9.60;99.90
15095;DHT22;7648;52.264;9.632;2024-01-30T19:13:05;9.40;99.90
15095;DHT22;7648;52.264;9.632;2024-01-30T19:17:07;9.30;99.90
15095;DHT22;7648;52.264;9.632;2024-01-30T19:21:08;9.20;99.90
15095;DHT22;7648;52.264;9.632;2024-01-30T19:25:12;9.10;99.90
15095;DHT22;7648;52.264;9.632;2024-01-30T19:29:14;9.00;99.90
15095;DHT22;7648;52.264;9.632;2024-01-30T19:33:16;8.90;99.90
15095;DHT22;7648;52.264;9.632;2024-01-30T19:37:18;8.90;99.90
15095;DHT22;7648;52.264;9.632;2024-01-30T19:41:24;8.80;99.90
15095;DHT22;7648;52.264;9.632;2024-01-30T19:45:26;8.80;99.90
15095;DHT22;7648;52.264;9.632;2024-01-30T19:49:28;8.80;99.90
15095;DHT22;7648;52.264;9.632;2024-01-30T19:53:31;8.90;99.90
15095;DHT22;7648;52.264;9.632;2024-01-30T19:57:35;9.00;99.90
15095;DHT22;7648;52.264;9.632;2024-01-30T20:01:37;8.90;99.90
15095;DHT22;7648;52.264;9.632;2024-01-30T20:05:39;8.90;99.90
15095;DHT22;7648;52.264;9.632;2024-01-30T20:09:41;9.00;99.90
15095;DHT22;7648;52.264;9.632;2024-01-30T20:13:44;9.00;99.90
15095;DHT22;7648;52.264;9.632;2024-01-30T20:17:46;9.00;99.90
15095;DHT22;7648;52.264;9.632;2024-01-30T20:21:48;8.90;99.90
15095;DHT22;7648;52.264;9.632;2024-01-30T20:25:50;8.80;99.90
15095;DHT22;7648;52.264;9.632;2024-01-30T20:29:53;8.70;99.90
15095;DHT22;7648;52.264;9.632;2024-01-30T20:33:55;8.70;99.90
15095;DHT22;7648;52.264;9.632;2024-01-30T20:37:57;8.80;99.90
15095;DHT22;7648;52.264;9.632;2024-01-30T20:41:59;8.80;99.90
15095;DHT22;7648;52.264;9.632;2024-01-30T20:46:02;8.80;99.90
15095;DHT22;7648;52.264;9.632;2024-01-30T20:50:06;8.90;99.90
15095;DHT22;7648;52.264;9.632;2024-01-30T20:54:08;8.80;99.90
15095;DHT22;7648;52.264;9.632;2024-01-30T20:58:10;8.80;99.90
15095;DHT22;7648;52.264;9.632;2024-01-30T21:02:13;8.90;99.90
15095;DHT22;7648;52.264;9.632;2024-01-30T21:06:15;9.00;99.90
15095;DHT22;7648;52.264;9.632;2024-01-30T21:10:17;9.00;99.90
15095;DHT22;7648;52.264;9.632;2024-01-30T21:14:19;8.90;99.90
15095;DHT22;7648;52.264;9.632;2024-01-30T21:18:22;8.90;99.90
15095;DHT22;7648;52.264;9.632;2024-01-30T21:22:24;8.80;99.90
15095;DHT22;7648;52.264;9.632;2024-01-30T21:26:26;8.80;99.90
15095;DHT22;7648;52.264;9.632;2024-01-30T21:30:28;8.70;99.90
15095;DHT22;7648;52.264;9.632;2024-01-30T21:34:32;8.70;99.90
15095;DHT22;7648;52.264;9.632;2024-01-30T21:38:33;8.80;99.90
15095;DHT22;7648;52.264;9.632;2024-01-30T21:42:36;8.80;99.90
15095;DHT22;7648;52.264;9.632;2024-01-30T21:46:39;8.80;99.90
15095;DHT22;7648;52.264;9.632;2024-01-30T21:50:42;8.80;99.90
15095;DHT22;7648;52.264;9.632;2024-01-30T21:54:46;8.80;99.90
15095;DHT22;7648;52.264;9.632;2024-01-30T21:58:48;8.80;99.90
15095;DHT22;7648;52.264;9.632;2024-01-30T22:02:50;8.60;99.90
15095;DHT22;7648;52.264;9.632;2024-01-30T22:06:53;8.60;99.90
15095;DHT22;7648;52.264;9.632;2024-01-30T22:10:55;8.50;99.90
15095;DHT22;7648;52.264;9.632;2024-01-30T22:14:57;8.50;99.90
15095;DHT22;7648;52.264;9.632;2024-01-30T22:18:59;8.50;99.90
15095;DHT22;7648;52.264;9.632;2024-01-30T22:23:02;8.50;99.90
15095;DHT22;7648;52.264;9.632;2024-01-30T22:27:04;8.40;99.90
15095;DHT22;7648;52.264;9.632;2024-01-30T22:31:06;8.50;99.90
15095;DHT22;7648;52.264;9.632;2024-01-30T22:35:08;8.50;99.90
15095;DHT22;7648;52.264;9.632;2024-01-30T22:39:15;8.40;99.90
15095;DHT22;7648;52.264;9.632;2024-01-30T22:43:17;8.40;99.90
15095;DHT22;7648;52.264;9.632;2024-01-30T22:47:19;8.40;99.90
15095;DHT22;7648;52.264;9.632;2024-01-30T22:51:21;8.30;99.90
15095;DHT22;7648;52.264;9.632;2024-01-30T22:55:24;8.20;99.90
15095;DHT22;7648;52.264;9.632;2024-01-30T22:59:26;8.00;99.90
15095;DHT22;7648;52.264;9.632;2024-01-30T23:03:29;7.90;99.90
15095;DHT22;7648;52.264;9.632;2024-01-30T23:07:31;7.70;99.90
15095;DHT22;7648;52.264;9.632;2024-01-30T23:11:37;7.50;99.90
15095;DHT22;7648;52.264;9.632;2024-01-30T23:15:39;7.40;99.90
15095;DHT22;7648;52.264;9.632;2024-01-30T23:19:41;7.30;99.90
15095;DHT22;7648;52.264;9.632;2024-01-30T23:23:43;7.30;99.90
15095;DHT22;7648;52.264;9.632;2024-01-30T23:27:47;7.30;99.90
15095;DHT22;7648;52.264;9.632;2024-01-30T23:31:49;7.30;99.90
15095;DHT22;7648;52.264;9.632;2024-01-30T23:35:51;7.30;99.90
15095;DHT22;7648;52.264;9.632;2024-01-30T23:39:53;7.30;99.90
15095;DHT22;7648;52.264;9.632;2024-01-30T23:43:56;7.20;99.90
15095;DHT22;7648;52.264;9.632;2024-01-30T23:47:58;7.20;99.90
15095;DHT22;7648;52.264;9.632;2024-01-30T23:52:01;7.10;99.90
15095;DHT22;7648;52.264;9.632;2024-01-30T23:56:03;7.10;99.90
